INFORMACIÓN METAR y TAF
METAR FOR LEAM
ADDS - METARS form results

(0355 UTC 17 October 2019)
Data provider http://aviationweather.gov/metar/data/
 
METAR text: LEAM 170330Z 34005KT CAVOK 14/10 Q1017
Conditions at: LEAM (ALMERIA AIRPORT , ES) observed 0330 UTC 17 October 2019
Temperature: 14.0°C (57°F)
Dewpoint: 10.0°C (50°F) [RH = 77%]
Pressure (altimeter): 30.03 inches Hg (1017.0 mb)
Winds: from the NNW (340 degrees) at 6 MPH (5 knots; 2.6 m/s)
Visibility: 6 or more miles (10+ km)
Ceiling: ceiling and visibility are OK
Clouds: unknown
Weather: no significant weather observed at this time

METAR text: LEAM 170300Z 34005KT CAVOK 14/10 Q1018
Conditions at: LEAM (ALMERIA AIRPORT , ES) observed 0300 UTC 17 October 2019
Temperature: 14.0°C (57°F)
Dewpoint: 10.0°C (50°F) [RH = 77%]
Pressure (altimeter): 30.06 inches Hg (1018.0 mb)
Winds: from the NNW (340 degrees) at 6 MPH (5 knots; 2.6 m/s)
Visibility: 6 or more miles (10+ km)
Ceiling: ceiling and visibility are OK
Clouds: unknown
Weather: no significant weather observed at this time

Forecast for: LEAM (ALMERIA AIRPORT , ES)
Text: TAF LEAM 170200Z 1703/1803 34006KT CAVOK TX24/1712Z TN13/1705Z
Forecast period: 0300 to 0900 UTC 17 October 2019
Forecast type: FROM: standard forecast or significant change
Winds: from the NNW (340 degrees) at 7 MPH (6 knots; 3.1 m/s)
Visibility: 6 or more miles 10+ km)
Ceiling: unknown
Clouds: missing
Weather: no significant weather forecast for this period
Text: BECMG 1709/1711 22012KT
Forecast period: 0900 to 1900 UTC 17 October 2019
Forecast type: BECOMING: Conditions expected to become as follows by 1100 UTC 17 October 2019
Winds: from the SW (220 degrees) at 14 MPH (12 knots; 6.2 m/s)
Visibility: 6 or more miles 10+ km)
Ceiling: unknown
Clouds: missing
Weather: no significant weather forecast for this period
Text: BECMG 1719/1721 35005KT
Forecast period: 1900 UTC 17 October 2019 to 0300 UTC 18 October 2019
Forecast type: BECOMING: Conditions expected to become as follows by 2100 UTC 17 October 2019
Winds: from the N (350 degrees) at 6 MPH (5 knots; 2.6 m/s)
Visibility: 6 or more miles 10+ km)
Ceiling: unknown
Clouds: missing
Weather: no significant weather forecast for this period

 MAPA DE AEROPUERTO

 INFORMACIÓN DE PISTA
Pista 08 Longitud 10499 ft Ancho 148 ft
Elevación 26 ft Umbral desplazado 492 ft Rumbo de pista 73
Pista 26 Longitud 10499 ft Ancho 148 ft
Elevación 70 ft Umbral desplazado 0 ft Rumbo de pista 253

 FRECUANCIAS DEL AEROPUERTO
Tipo APP Nombre APP Frecuencia 118.35 MHZ
Tipo GND Nombre GND Frecuencia 121.7 MHZ
Tipo TWR Nombre TWR Frecuencia 118.35 MHZ

 RADIO AYUDAS DEL AEROPUERTO
Tipo NDB Nombre Almeria Frecuencia 284 KHZ
Tipo NDB Nombre Almeria Frecuencia 310 KHZ
Tipo VOR-DME Nombre Almeria Frecuencia 114100 KHZ



Powered by Virtual Airlines Manager [v2.6.2]